Time;durP1;ratioP1;P1;durP2;ratioP2;P2;SDS_P1;SDS_P2;PMS_P1;PMS_P2;Temp;Humidity;BMP_temperature;BMP_pressure;BME280_temperature;BME280_humidity;BME280_pressure;Samples;Min_cycle;Max_cycle;Signal;HPM_P1;HPM_P2
2021/07/26 00:02:24;;;;;;;8.23;7.38;;;;;;;;;;5077064;28;38252;-79
2021/07/26 00:04:54;;;;;;;10.90;8.68;;;;;;;;;;5071896;28;35110;-79
2021/07/26 00:07:20;;;;;;;8.93;8.02;;;;;;;;;;5074472;28;37901;-79
2021/07/26 00:09:50;;;;;;;10.48;9.40;;;;;;;;;;5061933;28;39076;-79
2021/07/26 00:12:16;;;;;;;10.55;8.18;;;;;;;;;;5046933;28;38797;-79
2021/07/26 00:14:43;;;;;;;13.32;9.48;;;;;;;;;;5065772;28;38530;-79
2021/07/26 00:17:18;;;;;;;9.27;8.27;;;;;;;;;;5055906;28;38924;-79
2021/07/26 00:19:44;;;;;;;9.10;8.20;;;;;;;;;;5072709;28;40329;-79
2021/07/26 00:22:11;;;;;;;8.23;7.43;;;;;;;;;;5066581;28;38469;-79
2021/07/26 00:24:37;;;;;;;9.80;7.82;;;;;;;;;;5059009;28;36936;-79
2021/07/26 00:27:04;;;;;;;8.00;7.20;;;;;;;;;;5063536;28;41154;-80
2021/07/26 00:29:30;;;;;;;9.38;7.03;;;;;;;;;;5077960;28;37454;-78
2021/07/26 00:31:59;;;;;;;9.93;8.25;;;;;;;;;;5057014;28;38811;-79
2021/07/26 00:34:29;;;;;;;8.55;7.72;;;;;;;;;;5076784;28;37053;-78
2021/07/26 00:36:58;;;;;;;8.23;7.43;;;;;;;;;;5062139;28;37732;-79
2021/07/26 00:39:29;;;;;;;9.00;8.13;;;;;;;;;;5066168;28;37851;-79
2021/07/26 00:42:08;;;;;;;7.88;7.18;;;;;;;;;;5076654;28;37916;-79
2021/07/26 00:44:34;;;;;;;11.20;9.50;;;;;;;;;;5065660;28;48442;-79
2021/07/26 00:47:01;;;;;;;11.25;8.95;;;;;;;;;;5077102;28;39779;-78
2021/07/26 00:49:28;;;;;;;10.63;9.43;;;;;;;;;;5067716;28;47670;-78
2021/07/26 00:51:58;;;;;;;8.80;7.88;;;;;;;;;;5079976;28;37033;-78
2021/07/26 00:54:40;;;;;;;8.43;7.63;;;;;;;;;;5083129;28;36425;-78
2021/07/26 00:57:07;;;;;;;10.97;8.67;;;;;;;;;;5053861;28;37813;-78
2021/07/26 00:59:34;;;;;;;13.52;10.63;;;;;;;;;;5082042;28;37742;-79
2021/07/26 01:02:00;;;;;;;10.63;9.52;;;;;;;;;;5065656;28;37280;-78
2021/07/26 01:04:27;;;;;;;9.52;8.60;;;;;;;;;;5071342;28;47651;-78
2021/07/26 01:06:54;;;;;;;12.68;9.38;;;;;;;;;;5083893;28;38011;-79
2021/07/26 01:09:21;;;;;;;10.70;9.40;;;;;;;;;;5074076;28;37790;-78
2021/07/26 01:11:47;;;;;;;14.27;10.60;;;;;;;;;;5077937;28;38223;-78
2021/07/26 01:14:15;;;;;;;10.35;8.65;;;;;;;;;;5058535;28;38363;-79
2021/07/26 01:16:45;;;;;;;9.55;8.55;;;;;;;;;;5064068;28;40785;-78
2021/07/26 01:19:12;;;;;;;9.55;8.63;;;;;;;;;;5068517;28;37593;-79
2021/07/26 01:21:38;;;;;;;10.73;9.60;;;;;;;;;;5084459;28;39664;-80
2021/07/26 01:24:05;;;;;;;11.02;9.55;;;;;;;;;;5069379;28;36721;-79
2021/07/26 01:26:32;;;;;;;8.95;8.02;;;;;;;;;;5086447;28;39711;-79
2021/07/26 01:29:00;;;;;;;9.77;8.88;;;;;;;;;;5065907;28;37089;-79
2021/07/26 01:31:26;;;;;;;9.43;8.50;;;;;;;;;;5054922;28;36887;-78
2021/07/26 01:33:53;;;;;;;8.65;7.35;;;;;;;;;;5084962;28;35153;-79
2021/07/26 01:36:23;;;;;;;11.77;10.65;;;;;;;;;;5053675;28;37525;-79
2021/07/26 01:38:56;;;;;;;12.50;9.65;;;;;;;;;;5062537;28;40788;-79
2021/07/26 01:41:43;;;;;;;13.38;10.43;;;;;;;;;;5069957;28;37240;-79
2021/07/26 01:44:11;;;;;;;11.73;9.07;;;;;;;;;;5081157;28;37908;-79
2021/07/26 01:58:28;;;;;;;11.18;9.93;;;;;;;;;;5498481;22;40743;-79
2021/07/26 02:00:54;;;;;;;14.95;12.10;;;;;;;;;;5056437;28;39977;-80
2021/07/26 02:03:21;;;;;;;13.65;12.20;;;;;;;;;;5070476;28;39476;-80
2021/07/26 02:05:50;;;;;;;16.02;11.77;;;;;;;;;;5055878;28;36339;-80
2021/07/26 02:08:16;;;;;;;14.32;12.68;;;;;;;;;;5112376;22;39815;-78
2021/07/26 02:16:23;;;;;;;13.57;11.40;;;;;;;;;;5053427;26;20050;-81
2021/07/26 02:18:49;;;;;;;12.30;10.38;;;;;;;;;;5063468;22;39798;-79
2021/07/26 02:21:16;;;;;;;16.27;12.63;;;;;;;;;;5056152;28;38375;-76
2021/07/26 02:23:44;;;;;;;18.55;13.75;;;;;;;;;;5064565;28;37408;-77
2021/07/26 02:34:35;;;;;;;14.23;12.73;;;;;;;;;;5158850;22;20029;-79
2021/07/26 02:37:16;;;;;;;17.90;14.57;;;;;;;;;;5096104;27;37299;-79
2021/07/26 02:39:43;;;;;;;14.63;13.13;;;;;;;;;;5094081;28;48604;-78
2021/07/26 02:42:09;;;;;;;18.98;15.18;;;;;;;;;;5092733;28;38789;-78
2021/07/26 02:53:34;;;;;;;;;;;;;;;;;;5102141;22;20053;-79
2021/07/26 02:56:01;;;;;;;19.10;16.67;;;;;;;;;;5077340;28;38278;-79
2021/07/26 02:58:29;;;;;;;20.77;17.60;;;;;;;;;;5055078;28;47612;-79
2021/07/26 03:00:55;;;;;;;18.27;16.33;;;;;;;;;;5059534;28;38023;-79
2021/07/26 03:03:22;;;;;;;17.20;14.63;;;;;;;;;;5076804;28;38625;-77
2021/07/26 03:05:48;;;;;;;19.17;15.50;;;;;;;;;;5057943;28;37562;-77
2021/07/26 03:08:14;;;;;;;19.77;16.50;;;;;;;;;;5058262;28;37381;-79
2021/07/26 03:10:41;;;;;;;19.40;16.23;;;;;;;;;;5057829;28;38374;-78
2021/07/26 03:13:07;;;;;;;20.42;18.20;;;;;;;;;;5058326;28;37382;-77
2021/07/26 03:15:38;;;;;;;18.60;16.60;;;;;;;;;;5075108;28;38814;-77
2021/07/26 03:18:05;;;;;;;21.20;18.90;;;;;;;;;;5046462;28;36085;-77
2021/07/26 03:20:32;;;;;;;19.85;17.52;;;;;;;;;;5056084;28;38401;-77
2021/07/26 03:22:59;;;;;;;19.45;17.40;;;;;;;;;;5076649;28;39178;-77
2021/07/26 03:25:26;;;;;;;20.02;17.25;;;;;;;;;;5045717;28;37531;-77
2021/07/26 03:27:53;;;;;;;19.30;17.33;;;;;;;;;;5056423;28;37351;-77
2021/07/26 03:30:20;;;;;;;21.90;19.63;;;;;;;;;;5054356;28;39587;-78
2021/07/26 03:32:47;;;;;;;17.45;15.73;;;;;;;;;;5054139;28;37857;-77
2021/07/26 03:35:14;;;;;;;21.20;19.00;;;;;;;;;;5072156;28;38281;-77
2021/07/26 03:37:40;;;;;;;21.10;17.85;;;;;;;;;;5057055;28;38044;-77
2021/07/26 03:40:07;;;;;;;20.85;18.65;;;;;;;;;;5057279;28;37838;-77
2021/07/26 03:42:37;;;;;;;22.08;19.65;;;;;;;;;;5054813;28;40255;-77
2021/07/26 03:45:04;;;;;;;22.00;19.75;;;;;;;;;;5055116;28;38797;-77
2021/07/26 03:47:30;;;;;;;21.73;19.42;;;;;;;;;;5055943;28;47157;-76
2021/07/26 03:49:57;;;;;;;20.27;18.27;;;;;;;;;;5055655;28;39514;-77
2021/07/26 03:52:23;;;;;;;23.55;19.73;;;;;;;;;;5054923;28;38669;-78
2021/07/26 03:54:50;;;;;;;20.60;17.95;;;;;;;;;;5056905;28;39255;-78
2021/07/26 03:57:16;;;;;;;24.33;21.60;;;;;;;;;;5041759;28;37947;-78
2021/07/26 03:59:43;;;;;;;27.05;22.35;;;;;;;;;;5043884;28;39578;-78
2021/07/26 04:02:17;;;;;;;27.65;23.48;;;;;;;;;;5054724;28;39447;-78
2021/07/26 04:04:43;;;;;;;22.63;20.33;;;;;;;;;;5056400;28;38607;-78
2021/07/26 04:07:23;;;;;;;24.90;21.92;;;;;;;;;;5053287;28;38472;-78
2021/07/26 04:09:55;;;;;;;21.25;18.95;;;;;;;;;;5042979;28;40479;-78
2021/07/26 04:12:25;;;;;;;21.30;19.05;;;;;;;;;;5054613;28;40595;-79
2021/07/26 04:14:51;;;;;;;28.98;24.08;;;;;;;;;;5035801;28;38372;-78
2021/07/26 04:17:18;;;;;;;24.10;21.40;;;;;;;;;;5045865;28;37861;-78
2021/07/26 04:19:44;;;;;;;27.67;23.00;;;;;;;;;;5027081;28;37879;-78
2021/07/26 04:22:11;;;;;;;27.33;21.50;;;;;;;;;;5066654;28;39238;-78
2021/07/26 04:24:37;;;;;;;24.48;21.83;;;;;;;;;;5055505;28;38625;-78
2021/07/26 04:27:04;;;;;;;28.67;23.40;;;;;;;;;;5047657;28;37322;-78
2021/07/26 04:29:30;;;;;;;24.77;20.75;;;;;;;;;;5046394;28;40619;-78
2021/07/26 04:31:56;;;;;;;26.75;23.05;;;;;;;;;;5055140;28;38503;-78
2021/07/26 04:34:23;;;;;;;23.80;21.10;;;;;;;;;;5042151;28;39225;-78
2021/07/26 04:36:49;;;;;;;24.45;21.92;;;;;;;;;;5036112;28;37697;-78
2021/07/26 04:39:16;;;;;;;26.33;22.80;;;;;;;;;;5052475;28;38367;-78
2021/07/26 04:41:42;;;;;;;26.40;22.42;;;;;;;;;;5053640;28;39467;-78
2021/07/26 04:44:08;;;;;;;25.30;21.92;;;;;;;;;;5046172;28;38828;-78
2021/07/26 04:46:35;;;;;;;34.78;26.92;;;;;;;;;;5072994;28;37621;-78
2021/07/26 04:49:01;;;;;;;28.92;23.48;;;;;;;;;;5055627;28;38384;-78
2021/07/26 04:51:28;;;;;;;25.10;22.40;;;;;;;;;;5052728;28;47538;-78
2021/07/26 04:53:54;;;;;;;22.90;20.50;;;;;;;;;;5055266;28;39879;-77
2021/07/26 04:56:21;;;;;;;26.98;24.17;;;;;;;;;;5072986;28;37509;-78
2021/07/26 04:58:47;;;;;;;21.40;18.25;;;;;;;;;;5041002;28;39849;-78
2021/07/26 05:01:14;;;;;;;24.75;21.77;;;;;;;;;;5041682;28;38939;-78
2021/07/26 05:03:40;;;;;;;20.92;18.83;;;;;;;;;;5073298;28;38681;-78
2021/07/26 05:06:07;;;;;;;21.30;19.08;;;;;;;;;;5043970;28;38127;-78
2021/07/26 05:08:33;;;;;;;26.58;19.13;;;;;;;;;;5079352;28;39486;-79
2021/07/26 05:10:59;;;;;;;23.50;19.67;;;;;;;;;;5077394;28;38786;-78
2021/07/26 05:13:26;;;;;;;23.80;19.15;;;;;;;;;;5060283;28;39879;-78
2021/07/26 05:15:52;;;;;;;30.45;23.52;;;;;;;;;;5057810;28;36151;-78
2021/07/26 05:18:18;;;;;;;21.85;19.20;;;;;;;;;;5054832;28;38706;-78
2021/07/26 05:20:45;;;;;;;24.10;20.98;;;;;;;;;;5055205;28;38632;-78
2021/07/26 05:23:12;;;;;;;24.30;21.48;;;;;;;;;;5054575;28;38060;-78
2021/07/26 05:25:45;;;;;;;26.80;20.17;;;;;;;;;;5055927;28;37904;-78
2021/07/26 05:28:15;;;;;;;31.00;24.45;;;;;;;;;;5055036;28;38045;-78
2021/07/26 05:30:42;;;;;;;34.45;26.13;;;;;;;;;;5055358;28;39000;-78
2021/07/26 05:33:08;;;;;;;26.85;22.48;;;;;;;;;;5072583;28;38890;-78
2021/07/26 05:35:35;;;;;;;26.63;22.55;;;;;;;;;;5072613;28;39084;-78
2021/07/26 05:38:07;;;;;;;27.67;22.15;;;;;;;;;;5054896;28;39356;-78
2021/07/26 05:40:33;;;;;;;25.88;21.08;;;;;;;;;;5069975;28;49276;-77
2021/07/26 05:43:00;;;;;;;24.15;19.85;;;;;;;;;;5054467;28;37892;-78
2021/07/26 05:45:26;;;;;;;26.08;21.10;;;;;;;;;;5070658;28;37600;-78
2021/07/26 05:47:53;;;;;;;24.85;19.17;;;;;;;;;;5054534;28;37909;-77
2021/07/26 05:50:19;;;;;;;23.55;19.15;;;;;;;;;;5055338;28;38933;-78
2021/07/26 05:52:46;;;;;;;22.25;18.05;;;;;;;;;;5052655;28;37498;-78
2021/07/26 05:55:13;;;;;;;24.77;20.33;;;;;;;;;;5059533;28;36595;-78
2021/07/26 05:57:44;;;;;;;23.40;18.73;;;;;;;;;;5040309;28;39381;-78
2021/07/26 06:00:14;;;;;;;23.45;20.00;;;;;;;;;;5048835;28;37839;-78
2021/07/26 06:02:40;;;;;;;23.38;20.15;;;;;;;;;;5071172;28;39486;-78
2021/07/26 06:05:07;;;;;;;27.98;22.88;;;;;;;;;;5070431;28;37467;-77
2021/07/26 06:07:33;;;;;;;28.55;22.08;;;;;;;;;;5069073;28;39175;-77
2021/07/26 06:09:59;;;;;;;28.42;22.60;;;;;;;;;;5050561;28;37943;-78
2021/07/26 06:12:27;;;;;;;27.02;22.08;;;;;;;;;;5053798;28;41457;-79
2021/07/26 06:14:56;;;;;;;24.85;22.13;;;;;;;;;;5056363;28;38931;-78
2021/07/26 06:17:23;;;;;;;25.92;22.08;;;;;;;;;;5036400;28;37802;-78
2021/07/26 06:19:49;;;;;;;25.00;22.35;;;;;;;;;;5035957;28;39900;-78
2021/07/26 06:22:19;;;;;;;40.15;29.25;;;;;;;;;;5064981;28;38437;-78
2021/07/26 06:24:48;;;;;;;31.17;25.27;;;;;;;;;;5063136;28;37429;-78
2021/07/26 06:27:18;;;;;;;28.00;22.50;;;;;;;;;;5053934;28;39256;-78
2021/07/26 06:29:44;;;;;;;36.22;27.27;;;;;;;;;;5075714;28;39479;-79
2021/07/26 06:32:11;;;;;;;30.23;25.35;;;;;;;;;;5055878;28;39971;-78
2021/07/26 06:34:37;;;;;;;29.10;23.75;;;;;;;;;;5059553;28;37410;-79
2021/07/26 06:37:04;;;;;;;20.15;18.02;;;;;;;;;;5075962;28;39956;-79
2021/07/26 06:39:34;;;;;;;27.30;22.15;;;;;;;;;;5068645;28;40311;-79
2021/07/26 06:42:01;;;;;;;26.90;22.65;;;;;;;;;;5055748;28;39980;-78
2021/07/26 06:44:27;;;;;;;27.92;22.05;;;;;;;;;;5055548;28;46847;-79
2021/07/26 06:46:55;;;;;;;20.40;18.30;;;;;;;;;;5056593;28;40994;-79
2021/07/26 06:49:21;;;;;;;22.02;18.25;;;;;;;;;;5071872;28;38382;-79
2021/07/26 06:52:07;;;;;;;30.20;23.35;;;;;;;;;;5077913;28;39964;-79
2021/07/26 07:14:23;;;;;;;16.33;14.63;;;;;;;;;;5554720;23;20037;-79
2021/07/26 07:16:58;;;;;;;15.45;12.98;;;;;;;;;;5118049;28;37359;-80
2021/07/26 07:19:25;;;;;;;12.77;10.85;;;;;;;;;;5273406;22;40327;-79
2021/07/26 07:21:52;;;;;;;11.73;10.63;;;;;;;;;;5073688;28;37941;-79
2021/07/26 07:24:21;;;;;;;10.13;9.13;;;;;;;;;;5070551;28;37609;-79
2021/07/26 07:26:48;;;;;;;10.27;9.30;;;;;;;;;;5085937;28;37312;-79
2021/07/26 07:29:17;;;;;;;10.25;9.20;;;;;;;;;;5063185;28;38845;-79
2021/07/26 07:31:44;;;;;;;12.48;11.25;;;;;;;;;;5061194;28;38387;-78
2021/07/26 07:34:15;;;;;;;13.63;12.23;;;;;;;;;;5055988;28;39284;-77
2021/07/26 07:36:42;;;;;;;17.63;14.75;;;;;;;;;;5052558;28;37719;-78
2021/07/26 07:39:11;;;;;;;20.92;16.52;;;;;;;;;;5070703;28;40147;-78
2021/07/26 07:41:38;;;;;;;18.65;16.83;;;;;;;;;;5068248;28;38335;-76
2021/07/26 07:44:04;;;;;;;18.42;16.58;;;;;;;;;;5070798;28;38102;-77
2021/07/26 07:46:30;;;;;;;16.25;14.70;;;;;;;;;;5070935;28;37720;-78
2021/07/26 07:49:00;;;;;;;17.98;15.40;;;;;;;;;;5072322;28;38923;-78
2021/07/26 07:51:27;;;;;;;21.33;19.08;;;;;;;;;;5070706;28;46909;-78
2021/07/26 07:53:54;;;;;;;18.38;16.50;;;;;;;;;;5073627;28;39335;-78
2021/07/26 07:56:20;;;;;;;9.93;8.90;;;;;;;;;;5075222;28;37302;-78
2021/07/26 07:58:52;;;;;;;7.90;7.10;;;;;;;;;;5075593;28;39731;-78
2021/07/26 08:01:19;;;;;;;6.28;5.25;;;;;;;;;;5054307;28;41053;-78
2021/07/26 08:03:50;;;;;;;3.65;3.35;;;;;;;;;;5075217;28;38266;-78
2021/07/26 08:06:16;;;;;;;3.43;3.13;;;;;;;;;;5073080;28;37054;-77
2021/07/26 08:08:43;;;;;;;4.22;3.83;;;;;;;;;;5073077;28;39952;-77
2021/07/26 08:11:09;;;;;;;4.63;4.15;;;;;;;;;;5072390;28;38323;-77
2021/07/26 08:13:39;;;;;;;4.95;4.40;;;;;;;;;;5072233;28;37913;-77
2021/07/26 08:16:06;;;;;;;5.07;4.20;;;;;;;;;;5071372;28;37365;-77
2021/07/26 08:18:33;;;;;;;4.55;4.07;;;;;;;;;;5069985;28;40106;-77
2021/07/26 08:21:00;;;;;;;3.00;2.70;;;;;;;;;;5071822;28;37328;-78
2021/07/26 08:23:32;;;;;;;5.78;3.03;;;;;;;;;;5072506;28;39067;-78
2021/07/26 08:25:59;;;;;;;4.47;3.78;;;;;;;;;;5074061;28;37095;-77
2021/07/26 08:28:25;;;;;;;3.90;3.00;;;;;;;;;;5074069;28;39037;-78
2021/07/26 08:30:51;;;;;;;3.28;2.88;;;;;;;;;;5055513;28;39038;-77
2021/07/26 08:33:18;;;;;;;4.75;3.90;;;;;;;;;;5055380;28;36722;-77
2021/07/26 08:35:47;;;;;;;3.13;2.63;;;;;;;;;;5056150;28;35793;-77
2021/07/26 08:38:13;;;;;;;2.38;2.17;;;;;;;;;;5072101;28;39635;-77
2021/07/26 08:40:40;;;;;;;4.00;3.10;;;;;;;;;;5072511;28;37814;-77
2021/07/26 08:43:11;;;;;;;3.08;2.70;;;;;;;;;;5071620;28;39955;-77
2021/07/26 08:45:38;;;;;;;4.90;4.03;;;;;;;;;;5071490;28;38886;-77
2021/07/26 08:48:06;;;;;;;4.97;4.43;;;;;;;;;;5074094;28;38941;-77
2021/07/26 08:50:33;;;;;;;4.20;3.88;;;;;;;;;;5052814;28;37403;-74
2021/07/26 08:53:01;;;;;;;3.85;3.10;;;;;;;;;;5071746;28;38492;-74
2021/07/26 08:55:29;;;;;;;3.72;3.42;;;;;;;;;;5069688;28;49852;-74
2021/07/26 08:57:56;;;;;;;4.10;3.47;;;;;;;;;;5066390;28;37830;-75
2021/07/26 09:00:24;;;;;;;4.70;3.90;;;;;;;;;;5065097;28;39136;-74
2021/07/26 09:02:51;;;;;;;3.58;3.25;;;;;;;;;;5048981;28;37383;-75
2021/07/26 09:05:18;;;;;;;4.05;3.00;;;;;;;;;;5047316;28;35625;-75
2021/07/26 09:07:45;;;;;;;4.10;2.78;;;;;;;;;;5049124;28;42053;-75
2021/07/26 09:10:14;;;;;;;5.47;2.97;;;;;;;;;;5038035;28;40119;-74
2021/07/26 09:12:44;;;;;;;2.90;2.70;;;;;;;;;;5064827;28;38642;-78
2021/07/26 09:15:17;;;;;;;3.00;2.70;;;;;;;;;;5066877;28;37178;-76
2021/07/26 09:17:44;;;;;;;2.58;2.38;;;;;;;;;;5067337;28;39243;-76
2021/07/26 09:20:11;;;;;;;4.18;3.78;;;;;;;;;;5065596;28;39556;-77
2021/07/26 09:22:39;;;;;;;4.05;3.42;;;;;;;;;;5067994;28;37665;-76
2021/07/26 09:25:11;;;;;;;4.28;3.35;;;;;;;;;;5066772;28;37131;-76
2021/07/26 09:27:37;;;;;;;5.47;3.72;;;;;;;;;;5045668;28;38145;-76
2021/07/26 09:30:13;;;;;;;6.35;5.50;;;;;;;;;;5046466;28;38723;-77
2021/07/26 09:32:40;;;;;;;10.40;9.38;;;;;;;;;;5044511;28;47514;-76
2021/07/26 09:35:07;;;;;;;7.90;7.10;;;;;;;;;;5050995;28;35715;-77
2021/07/26 09:37:33;;;;;;;15.10;10.57;;;;;;;;;;5045855;28;39239;-76
2021/07/26 09:40:19;;;;;;;19.98;17.25;;;;;;;;;;5046301;28;38157;-76
2021/07/26 09:42:46;;;;;;;18.63;16.08;;;;;;;;;;5002534;28;49202;-76
2021/07/26 09:45:22;;;;;;;20.50;18.02;;;;;;;;;;5065922;28;38067;-77
2021/07/26 09:48:04;;;;;;;19.23;16.90;;;;;;;;;;5064368;28;47592;-76
2021/07/26 09:50:31;;;;;;;;;;;;;;;;;;5066208;28;49387;-76
2021/07/26 09:53:05;;;;;;;21.55;17.15;;;;;;;;;;5065740;28;39355;-76
2021/07/26 09:55:32;;;;;;;19.60;15.48;;;;;;;;;;5064421;28;47966;-76
2021/07/26 09:58:02;;;;;;;15.00;11.15;;;;;;;;;;5067125;28;39865;-76
2021/07/26 10:00:32;;;;;;;12.18;10.63;;;;;;;;;;5050079;28;47337;-76
2021/07/26 10:02:58;;;;;;;12.95;10.68;;;;;;;;;;5048242;28;37061;-76
2021/07/26 10:05:29;;;;;;;14.68;9.38;;;;;;;;;;5053387;28;36217;-76
2021/07/26 10:07:55;;;;;;;14.30;11.00;;;;;;;;;;5064114;28;39684;-76
2021/07/26 10:10:22;;;;;;;13.75;11.32;;;;;;;;;;5066122;28;38446;-77
2021/07/26 10:12:50;;;;;;;16.20;12.65;;;;;;;;;;5049956;28;41166;-77
2021/07/26 10:15:18;;;;;;;14.85;12.23;;;;;;;;;;5045747;28;38664;-77
2021/07/26 10:17:46;;;;;;;16.63;11.32;;;;;;;;;;5065866;28;39081;-77
2021/07/26 10:20:14;;;;;;;13.07;10.90;;;;;;;;;;5048508;28;40835;-76
2021/07/26 10:22:42;;;;;;;12.90;10.75;;;;;;;;;;5028254;28;38552;-76
2021/07/26 10:25:16;;;;;;;14.88;11.88;;;;;;;;;;5050087;28;38160;-75
2021/07/26 10:27:43;;;;;;;10.35;9.23;;;;;;;;;;5033130;28;42641;-75
2021/07/26 10:30:10;;;;;;;9.45;8.43;;;;;;;;;;5033959;28;39014;-75
2021/07/26 10:32:37;;;;;;;10.75;8.98;;;;;;;;;;5046422;28;37749;-74
2021/07/26 10:35:11;;;;;;;13.05;10.75;;;;;;;;;;5040331;28;36785;-77
2021/07/26 10:37:37;;;;;;;17.63;13.38;;;;;;;;;;5036286;28;49067;-76
2021/07/26 10:40:23;;;;;;;16.17;12.68;;;;;;;;;;5065867;28;39429;-76
2021/07/26 10:42:50;;;;;;;14.93;13.10;;;;;;;;;;5036180;28;49060;-76
2021/07/26 10:45:36;;;;;;;19.17;15.07;;;;;;;;;;4999265;28;37346;-77
2021/07/26 10:48:24;;;;;;;18.67;13.98;;;;;;;;;;5009128;28;42160;-76
2021/07/26 10:50:51;;;;;;;19.20;15.90;;;;;;;;;;5010982;28;38957;-77
2021/07/26 10:53:33;;;;;;;18.75;15.90;;;;;;;;;;5051748;28;38686;-76
2021/07/26 10:56:04;;;;;;;17.38;15.55;;;;;;;;;;5066358;28;39433;-76
2021/07/26 10:58:42;;;;;;;17.58;15.68;;;;;;;;;;5046940;28;48014;-76
2021/07/26 11:01:25;;;;;;;17.15;14.55;;;;;;;;;;5033092;28;39544;-76
2021/07/26 11:03:56;;;;;;;16.00;14.00;;;;;;;;;;5027722;28;40461;-76
2021/07/26 11:06:37;;;;;;;16.15;13.70;;;;;;;;;;5025847;28;38500;-76
2021/07/26 11:09:21;;;;;;;17.35;12.32;;;;;;;;;;5027481;28;38046;-74
2021/07/26 11:11:54;;;;;;;13.35;11.50;;;;;;;;;;5028556;28;38940;-74
2021/07/26 11:14:20;;;;;;;12.60;11.05;;;;;;;;;;5026931;28;38668;-74
2021/07/26 11:16:47;;;;;;;13.02;11.45;;;;;;;;;;5027575;28;36826;-74
2021/07/26 11:19:32;;;;;;;15.48;11.35;;;;;;;;;;5046051;28;40076;-74
2021/07/26 11:21:58;;;;;;;12.70;11.45;;;;;;;;;;5068570;28;38764;-74
2021/07/26 11:24:40;;;;;;;13.85;12.43;;;;;;;;;;5069086;28;38378;-74
2021/07/26 11:27:13;;;;;;;12.65;11.32;;;;;;;;;;5065173;28;36190;-74
2021/07/26 11:29:42;;;;;;;13.05;11.75;;;;;;;;;;5067528;28;39091;-74
2021/07/26 11:32:19;;;;;;;12.70;9.75;;;;;;;;;;5065369;28;38395;-74
2021/07/26 11:34:47;;;;;;;12.48;11.27;;;;;;;;;;5067708;28;38836;-74
2021/07/26 11:37:14;;;;;;;13.23;10.75;;;;;;;;;;5066187;28;37169;-74
2021/07/26 11:39:51;;;;;;;14.35;11.82;;;;;;;;;;5066400;28;40756;-74
2021/07/26 11:42:19;;;;;;;14.75;13.13;;;;;;;;;;5054155;28;38194;-74
2021/07/26 11:44:46;;;;;;;16.08;12.80;;;;;;;;;;5047395;28;38458;-74
2021/07/26 11:47:13;;;;;;;15.00;13.23;;;;;;;;;;5047397;28;37850;-74
2021/07/26 11:50:06;;;;;;;13.60;10.98;;;;;;;;;;5030101;28;37746;-74
2021/07/26 11:52:33;;;;;;;12.43;11.13;;;;;;;;;;5042264;28;47351;-74
2021/07/26 11:54:59;;;;;;;12.68;11.32;;;;;;;;;;5068974;28;38988;-74
2021/07/26 11:57:25;;;;;;;13.00;11.60;;;;;;;;;;5066936;28;36525;-74
2021/07/26 11:59:53;;;;;;;12.43;11.20;;;;;;;;;;5069421;28;39160;-74
2021/07/26 12:02:22;;;;;;;15.55;13.70;;;;;;;;;;5065367;28;38188;-74
2021/07/26 12:04:48;;;;;;;17.25;14.70;;;;;;;;;;5068587;28;39209;-75
2021/07/26 12:07:15;;;;;;;15.40;13.75;;;;;;;;;;5066200;28;36960;-74
2021/07/26 12:09:51;;;;;;;16.08;14.00;;;;;;;;;;5066875;28;39503;-76
2021/07/26 12:12:18;;;;;;;15.93;13.68;;;;;;;;;;5048610;28;37429;-76
2021/07/26 12:14:45;;;;;;;13.85;12.27;;;;;;;;;;5048266;28;37109;-76
2021/07/26 12:17:25;;;;;;;12.40;9.35;;;;;;;;;;5064928;27;36259;-77
2021/07/26 12:20:01;;;;;;;8.50;7.03;;;;;;;;;;5066483;28;39133;-76
2021/07/26 12:22:38;;;;;;;7.13;6.43;;;;;;;;;;5066029;28;39527;-77
2021/07/26 12:25:16;;;;;;;7.47;6.32;;;;;;;;;;5066962;28;38371;-76
2021/07/26 12:27:43;;;;;;;9.50;7.00;;;;;;;;;;5065894;28;47407;-76
2021/07/26 12:30:13;;;;;;;7.18;6.47;;;;;;;;;;5065882;28;40644;-76
2021/07/26 12:32:50;;;;;;;9.30;8.10;;;;;;;;;;5066359;28;39695;-76
2021/07/26 12:35:19;;;;;;;11.75;10.25;;;;;;;;;;5064588;28;37208;-76
2021/07/26 12:38:06;;;;;;;12.73;10.50;;;;;;;;;;5056762;28;36700;-76
2021/07/26 12:40:36;;;;;;;14.68;10.95;;;;;;;;;;5064012;28;46742;-76
2021/07/26 12:43:04;;;;;;;22.33;12.25;;;;;;;;;;5046197;28;40486;-77
2021/07/26 12:45:30;;;;;;;18.25;13.45;;;;;;;;;;5067263;28;39255;-77
2021/07/26 12:47:58;;;;;;;25.95;18.48;;;;;;;;;;5067511;28;37947;-76
2021/07/26 12:50:24;;;;;;;23.40;17.48;;;;;;;;;;5047477;28;38460;-76
2021/07/26 12:52:50;;;;;;;24.88;15.73;;;;;;;;;;5049272;28;37748;-77
2021/07/26 12:55:17;;;;;;;20.50;14.25;;;;;;;;;;5055376;28;39242;-76
2021/07/26 12:57:43;;;;;;;16.38;13.75;;;;;;;;;;5065986;28;37258;-76
2021/07/26 13:00:10;;;;;;;19.20;13.98;;;;;;;;;;5066474;28;39190;-76
2021/07/26 13:02:37;;;;;;;15.98;13.13;;;;;;;;;;5049931;28;37425;-76
2021/07/26 13:05:04;;;;;;;18.83;13.52;;;;;;;;;;5049586;28;38358;-76
2021/07/26 13:07:31;;;;;;;17.35;13.73;;;;;;;;;;5068214;28;48667;-75
2021/07/26 13:09:57;;;;;;;16.77;13.27;;;;;;;;;;5043518;28;38474;-76
2021/07/26 13:12:23;;;;;;;18.40;12.80;;;;;;;;;;5048881;28;37254;-76
2021/07/26 13:14:50;;;;;;;15.50;12.52;;;;;;;;;;5067833;28;38694;-76
2021/07/26 13:17:17;;;;;;;13.88;11.82;;;;;;;;;;5066311;28;37222;-76
2021/07/26 13:19:43;;;;;;;17.50;13.60;;;;;;;;;;5065822;28;38542;-76
2021/07/26 13:22:10;;;;;;;20.90;15.02;;;;;;;;;;5067264;28;38684;-76
2021/07/26 13:24:36;;;;;;;23.08;15.13;;;;;;;;;;5066669;28;37591;-76
2021/07/26 13:27:06;;;;;;;20.13;14.85;;;;;;;;;;5063692;28;35704;-76
2021/07/26 13:29:35;;;;;;;21.52;14.50;;;;;;;;;;5065405;28;38722;-76
2021/07/26 13:32:01;;;;;;;19.10;14.05;;;;;;;;;;5066028;28;38134;-76
2021/07/26 13:34:27;;;;;;;20.55;14.10;;;;;;;;;;5066664;28;48514;-76
2021/07/26 13:36:54;;;;;;;14.77;11.40;;;;;;;;;;5064908;28;36680;-76
2021/07/26 13:39:21;;;;;;;13.10;10.75;;;;;;;;;;5065980;28;38833;-74
2021/07/26 13:41:47;;;;;;;14.27;11.32;;;;;;;;;;5036378;28;38485;-74
2021/07/26 13:44:14;;;;;;;15.05;11.85;;;;;;;;;;5026391;28;38168;-74
2021/07/26 13:46:40;;;;;;;13.63;10.68;;;;;;;;;;5045415;28;37557;-74
2021/07/26 13:49:07;;;;;;;15.35;10.40;;;;;;;;;;5046593;28;41062;-74
2021/07/26 13:51:33;;;;;;;10.77;9.05;;;;;;;;;;5064714;28;39734;-74
2021/07/26 13:53:59;;;;;;;9.80;7.47;;;;;;;;;;5063315;28;37137;-74
2021/07/26 13:56:25;;;;;;;11.00;9.48;;;;;;;;;;5042987;28;35991;-74
2021/07/26 13:58:52;;;;;;;10.77;7.65;;;;;;;;;;5060336;28;38862;-74
2021/07/26 14:01:18;;;;;;;9.30;7.32;;;;;;;;;;5054635;28;38457;-74
2021/07/26 14:03:45;;;;;;;9.85;8.80;;;;;;;;;;5055013;28;37962;-74
2021/07/26 14:06:12;;;;;;;8.82;7.35;;;;;;;;;;5046594;28;36728;-74
2021/07/26 14:08:38;;;;;;;7.53;6.70;;;;;;;;;;5063798;28;37583;-74
2021/07/26 14:11:05;;;;;;;7.90;7.10;;;;;;;;;;5065748;28;38831;-74
2021/07/26 14:13:31;;;;;;;10.88;8.73;;;;;;;;;;5064941;28;38147;-74
2021/07/26 14:15:58;;;;;;;9.65;8.65;;;;;;;;;;5065919;28;37920;-74
2021/07/26 14:18:25;;;;;;;10.40;8.80;;;;;;;;;;5063553;28;38227;-74
2021/07/26 14:20:53;;;;;;;11.88;9.73;;;;;;;;;;5048961;28;38535;-74
2021/07/26 14:23:20;;;;;;;12.07;10.88;;;;;;;;;;5055401;28;38275;-74
2021/07/26 14:25:46;;;;;;;13.13;11.38;;;;;;;;;;5048690;28;36229;-76
2021/07/26 14:28:13;;;;;;;11.88;10.70;;;;;;;;;;5066273;28;39003;-76
2021/07/26 14:30:39;;;;;;;11.77;10.60;;;;;;;;;;5041102;28;38741;-77
2021/07/26 14:33:05;;;;;;;14.00;11.93;;;;;;;;;;5059992;28;38308;-76
2021/07/26 14:35:35;;;;;;;12.43;11.13;;;;;;;;;;5063674;28;35922;-76
2021/07/26 14:38:02;;;;;;;15.40;13.77;;;;;;;;;;5066081;28;40036;-76
2021/07/26 14:40:28;;;;;;;17.27;14.32;;;;;;;;;;5046132;28;46998;-76
2021/07/26 14:42:55;;;;;;;14.20;12.38;;;;;;;;;;5047106;28;37305;-76
2021/07/26 14:45:21;;;;;;;17.95;13.18;;;;;;;;;;5043928;28;37815;-76
2021/07/26 14:47:48;;;;;;;16.48;11.95;;;;;;;;;;5065153;28;39109;-76
2021/07/26 14:50:14;;;;;;;13.85;12.45;;;;;;;;;;5045602;28;38973;-76
2021/07/26 14:52:40;;;;;;;15.82;13.90;;;;;;;;;;5065771;28;37855;-76
2021/07/26 14:55:07;;;;;;;14.25;12.55;;;;;;;;;;5064804;28;36773;-76
2021/07/26 14:57:33;;;;;;;15.30;13.15;;;;;;;;;;5064443;28;38490;-76
2021/07/26 15:00:00;;;;;;;17.95;15.13;;;;;;;;;;5065274;28;38774;-76
2021/07/26 15:02:26;;;;;;;18.55;15.95;;;;;;;;;;5054137;28;39059;-76
2021/07/26 15:04:55;;;;;;;18.88;16.98;;;;;;;;;;5048787;28;36227;-76
2021/07/26 15:07:22;;;;;;;19.55;17.05;;;;;;;;;;5066295;28;39236;-77
2021/07/26 15:09:48;;;;;;;18.98;17.08;;;;;;;;;;5067275;28;38431;-76
2021/07/26 15:12:15;;;;;;;22.52;18.90;;;;;;;;;;5049191;28;40391;-76
2021/07/26 15:14:41;;;;;;;18.80;16.75;;;;;;;;;;5052317;28;35886;-76
2021/07/26 15:17:08;;;;;;;21.17;18.77;;;;;;;;;;5067582;28;38923;-76
2021/07/26 15:19:34;;;;;;;22.08;19.05;;;;;;;;;;5066424;28;38676;-76
2021/07/26 15:22:00;;;;;;;24.17;19.85;;;;;;;;;;5065135;28;39326;-76
2021/07/26 15:24:28;;;;;;;24.83;20.38;;;;;;;;;;5045765;28;36787;-76
2021/07/26 15:26:55;;;;;;;25.90;20.23;;;;;;;;;;5045917;28;38071;-76